Terminal Aerodrome Forecast
Issued by NWS Charleston, WV

Current Version | Previous Version | Text Only | Print | Product List | Glossary Off
Versions: 1 2 3 4 5 6 7 8 9 10 11 12 13 14 15 16 17 18 19 20 21 22 23 24 25 26 27 28 29

401
FTUS41 KRLX 051126
TAFCRW
TAF
KCRW 051126Z 0512/0612 29008KT P6SM SCT025 OVC035
      TEMPO 0512/0514 BKN015 OVC025
     FM051400 30006KT P6SM BKN025
     FM052200 00000KT P6SM BKN250
     FM060900 VRB03KT P6SM -RA OVC015
     FM061000 13004KT 6SM -RA OVC025
     FM061100 12006KT 3SM -RA OVC040=

USA.gov is the U.S. government's official web portal to all federal, state and local government web resources and services.